createdAt,value
2018-05-12T00:00:18.653Z,12.40
2018-05-12T00:01:18.486Z,12.00
2018-05-12T00:03:11.783Z,14.80
2018-05-12T00:04:11.698Z,11.50
2018-05-12T00:06:04.995Z,12.10
2018-05-12T00:07:04.915Z,11.50
2018-05-12T00:08:58.191Z,10.80
2018-05-12T00:09:58.132Z,13.70
2018-05-12T00:11:51.421Z,13.20
2018-05-12T00:12:51.338Z,11.50
2018-05-12T00:14:44.614Z,13.80
2018-05-12T00:15:44.550Z,15.40
2018-05-12T00:17:37.950Z,11.40
2018-05-12T00:18:37.753Z,10.00
2018-05-12T00:20:31.119Z,13.60
2018-05-12T00:21:30.964Z,12.10
2018-05-12T00:23:24.338Z,14.00
2018-05-12T00:24:24.258Z,13.80
2018-05-12T00:26:17.552Z,11.60
2018-05-12T00:27:17.469Z,11.50
2018-05-12T00:29:10.742Z,14.50
2018-05-12T00:30:10.679Z,14.60
2018-05-12T00:32:03.968Z,12.80
2018-05-12T00:33:03.890Z,13.90
2018-05-12T00:34:57.165Z,13.70
2018-05-12T00:35:57.106Z,13.40
2018-05-12T00:37:50.397Z,13.30
2018-05-12T00:38:50.314Z,11.60
2018-05-12T00:40:43.695Z,11.60
2018-05-12T00:41:43.526Z,13.10
2018-05-12T00:43:36.820Z,13.50
2018-05-12T00:44:36.737Z,14.10
2018-05-12T00:46:30.032Z,14.20
2018-05-12T00:47:29.949Z,12.50
2018-05-12T00:49:23.329Z,12.90
2018-05-12T00:50:23.160Z,15.50
2018-05-12T00:52:17.065Z,15.40
2018-05-12T00:53:16.373Z,14.40
2018-05-12T00:55:09.647Z,12.70
2018-05-12T00:56:09.583Z,13.90
2018-05-12T00:58:02.868Z,13.40
2018-05-12T00:59:02.785Z,13.10
2018-05-12T01:00:56.167Z,13.70
2018-05-12T01:01:55.998Z,13.10
2018-05-12T01:03:49.291Z,13.10
2018-05-12T01:04:49.213Z,14.50
2018-05-12T01:06:42.504Z,14.30
2018-05-12T01:07:42.421Z,13.00
2018-05-12T01:09:35.700Z,14.30
2018-05-12T01:10:35.635Z,18.20
2018-05-12T01:12:28.930Z,13.50
2018-05-12T01:13:28.906Z,13.90
2018-05-12T01:15:22.121Z,14.90
2018-05-12T01:16:22.060Z,13.20
2018-05-12T01:18:15.344Z,15.90
2018-05-12T01:19:15.260Z,16.10
2018-05-12T01:21:08.537Z,13.20
2018-05-12T01:22:08.474Z,14.20
2018-05-12T01:24:01.768Z,15.20
2018-05-12T01:25:01.694Z,12.60
2018-05-12T01:26:54.980Z,13.80
2018-05-12T01:27:54.896Z,16.50
2018-05-12T01:29:48.172Z,13.40
2018-05-12T01:30:48.110Z,15.00
2018-05-12T01:32:41.410Z,14.50
2018-05-12T01:33:41.322Z,14.00
2018-05-12T01:35:34.600Z,13.10
2018-05-12T01:36:34.535Z,14.10
2018-05-12T01:38:27.826Z,13.80
2018-05-12T01:39:27.747Z,13.70
2018-05-12T01:41:21.026Z,13.40
2018-05-12T01:42:20.958Z,16.30
2018-05-12T01:44:14.337Z,16.00
2018-05-12T01:45:14.257Z,16.50
2018-05-12T01:47:07.655Z,14.90
2018-05-12T01:48:07.459Z,14.40
2018-05-12T01:50:00.735Z,13.90
2018-05-12T01:51:00.671Z,12.90
2018-05-12T01:52:53.965Z,16.00
2018-05-12T01:53:53.884Z,15.70
2018-05-12T01:55:47.264Z,15.80
2018-05-12T01:56:47.096Z,14.80
2018-05-12T01:58:40.495Z,14.60
2018-05-12T01:59:40.308Z,14.60
2018-05-12T02:01:33.585Z,15.40
2018-05-12T02:02:33.523Z,16.50
2018-05-12T02:04:26.921Z,14.50
2018-05-12T02:05:26.733Z,15.60
2018-05-12T02:07:20.020Z,17.00
2018-05-12T02:08:19.937Z,16.70
2018-05-12T02:10:13.218Z,17.00
2018-05-12T02:11:13.151Z,13.90
2018-05-12T02:13:06.552Z,13.50
2018-05-12T02:14:06.362Z,14.80
2018-05-12T02:15:59.639Z,14.40
2018-05-12T02:16:59.576Z,18.40
2018-05-12T02:18:52.870Z,14.90
2018-05-12T02:19:52.791Z,15.40
2018-05-12T02:21:46.066Z,16.90
2018-05-12T02:22:46.004Z,15.30
2018-05-12T02:24:39.299Z,16.10
2018-05-12T02:25:39.217Z,16.90
2018-05-12T02:27:32.616Z,15.20
2018-05-12T02:28:32.423Z,16.40
2018-05-12T02:30:26.315Z,14.60
2018-05-12T02:31:25.638Z,15.10
2018-05-12T02:33:19.040Z,14.90
2018-05-12T02:34:18.859Z,15.50
2018-05-12T02:36:12.130Z,16.30
2018-05-12T02:37:12.066Z,19.20
2018-05-12T02:39:05.363Z,15.00
2018-05-12T02:40:05.280Z,18.50
2018-05-12T02:41:58.557Z,18.00
2018-05-12T02:42:58.494Z,15.50
2018-05-12T02:44:51.791Z,19.50
2018-05-12T02:45:51.709Z,15.80
2018-05-12T02:47:45.011Z,16.30
2018-05-12T02:48:44.927Z,16.80
2018-05-12T02:50:38.309Z,18.50
2018-05-12T02:51:38.145Z,15.40
2018-05-12T02:53:31.539Z,17.50
2018-05-12T02:54:31.354Z,17.50
2018-05-12T02:56:24.631Z,17.30
2018-05-12T02:57:24.568Z,17.00
2018-05-12T02:59:17.966Z,17.10
2018-05-12T03:00:17.783Z,15.40
2018-05-12T03:02:11.059Z,17.60
2018-05-12T03:03:10.997Z,16.20
2018-05-12T03:05:04.341Z,16.00
2018-05-12T03:06:04.259Z,16.90
2018-05-12T03:07:57.555Z,15.60
2018-05-12T03:08:57.472Z,17.20
2018-05-12T03:10:50.855Z,18.60
2018-05-12T03:11:50.684Z,14.70
2018-05-12T03:13:43.980Z,15.70
2018-05-12T03:14:43.898Z,16.40
2018-05-12T03:16:37.174Z,17.40
2018-05-12T03:17:37.112Z,17.90
2018-05-12T03:19:30.405Z,19.20
2018-05-12T03:20:30.323Z,16.80
2018-05-12T03:22:23.602Z,21.10
2018-05-12T03:23:23.542Z,19.20
2018-05-12T03:25:16.832Z,18.50
2018-05-12T03:26:16.751Z,20.40
2018-05-12T03:28:10.048Z,17.50
2018-05-12T03:29:09.963Z,16.00
2018-05-12T03:31:03.344Z,16.50
2018-05-12T03:32:03.191Z,20.50
2018-05-12T03:33:56.470Z,17.50
2018-05-12T03:34:56.388Z,19.40
2018-05-12T03:36:49.663Z,19.00
2018-05-12T03:37:49.600Z,19.70
2018-05-12T03:39:42.893Z,19.20
2018-05-12T03:40:42.813Z,19.10
2018-05-12T03:42:36.192Z,17.60
2018-05-12T03:43:36.023Z,23.20
2018-05-12T03:45:29.422Z,20.60
2018-05-12T03:46:29.233Z,19.40
2018-05-12T03:48:22.533Z,24.60
2018-05-12T03:49:22.446Z,20.00
2018-05-12T03:51:15.723Z,19.60
2018-05-12T03:52:15.658Z,17.50
2018-05-12T03:54:08.950Z,21.30
2018-05-12T03:55:08.870Z,17.30
2018-05-12T03:57:02.147Z,18.20
2018-05-12T03:58:02.085Z,17.80
2018-05-12T03:59:55.457Z,20.50
2018-05-12T04:00:55.294Z,20.90
2018-05-12T04:02:49.178Z,23.20
2018-05-12T04:03:48.505Z,23.60
2018-05-12T04:05:41.800Z,20.10
2018-05-12T04:06:41.724Z,19.20
2018-05-12T04:08:35.076Z,18.20
2018-05-12T04:09:34.926Z,24.60
2018-05-12T04:11:28.199Z,22.60
2018-05-12T04:12:28.136Z,23.20
2018-05-12T04:14:21.532Z,21.00
2018-05-12T04:15:21.346Z,17.70
2018-05-12T04:17:14.615Z,22.20
2018-05-12T04:18:14.549Z,20.30
2018-05-12T04:20:07.863Z,17.60
2018-05-12T04:21:07.800Z,20.10
2018-05-12T04:23:01.051Z,19.60
2018-05-12T04:24:00.989Z,22.90
2018-05-12T04:25:54.335Z,17.50
2018-05-12T04:26:54.256Z,17.00
2018-05-12T04:28:47.548Z,18.00
2018-05-12T04:29:47.467Z,18.70
2018-05-12T04:31:40.847Z,19.30
2018-05-12T04:32:40.676Z,18.70
2018-05-12T04:34:34.076Z,21.80
2018-05-12T04:35:33.889Z,20.80
2018-05-12T04:37:27.154Z,20.00
2018-05-12T04:38:27.092Z,23.10
2018-05-12T04:40:20.387Z,20.60
2018-05-12T04:41:20.311Z,18.70
2018-05-12T04:43:13.772Z,19.80
2018-05-12T04:44:13.512Z,18.20
2018-05-12T04:46:06.809Z,22.30
2018-05-12T04:47:06.728Z,22.20
2018-05-12T04:49:00.022Z,21.80
2018-05-12T04:49:59.939Z,22.10
2018-05-12T04:51:53.216Z,22.00
2018-05-12T04:52:53.149Z,21.90
2018-05-12T04:54:46.549Z,22.00
2018-05-12T04:55:46.389Z,19.70
2018-05-12T04:57:39.628Z,16.90
2018-05-12T04:58:39.562Z,19.50
2018-05-12T05:00:32.856Z,22.00
2018-05-12T05:01:32.773Z,19.30
2018-05-12T05:03:26.047Z,19.50
2018-05-12T05:04:25.987Z,22.70
2018-05-12T05:06:19.277Z,18.60
2018-05-12T05:07:19.197Z,19.70
2018-05-12T05:09:12.492Z,19.50
2018-05-12T05:10:12.408Z,18.20
2018-05-12T05:12:05.680Z,19.70
2018-05-12T05:13:05.617Z,20.50
2018-05-12T05:14:58.915Z,16.80
2018-05-12T05:15:58.828Z,19.00
2018-05-12T05:17:52.207Z,19.80
2018-05-12T05:18:52.040Z,21.00
2018-05-12T05:20:45.439Z,20.50
2018-05-12T05:21:45.253Z,19.60
2018-05-12T05:23:38.630Z,17.50
2018-05-12T05:24:38.459Z,18.00
2018-05-12T05:26:31.755Z,18.60
2018-05-12T05:27:31.702Z,19.70
2018-05-12T05:29:24.966Z,18.40
2018-05-12T05:30:24.882Z,19.30
2018-05-12T05:32:18.261Z,22.20
2018-05-12T05:33:18.093Z,20.30
2018-05-12T05:35:11.408Z,19.40
2018-05-12T05:36:11.304Z,20.20
2018-05-12T05:38:05.184Z,17.80
2018-05-12T05:39:04.505Z,21.90
2018-05-12T05:40:57.803Z,19.20
2018-05-12T05:41:57.718Z,20.00
2018-05-12T05:43:50.991Z,20.20
2018-05-12T05:44:50.928Z,20.50
2018-05-12T05:46:44.222Z,25.00
2018-05-12T05:47:44.140Z,21.80
2018-05-12T05:49:37.433Z,20.80
2018-05-12T05:50:37.361Z,18.40
2018-05-12T05:52:30.627Z,20.10
2018-05-12T05:53:30.566Z,18.90
2018-05-12T05:55:23.859Z,20.10
2018-05-12T05:56:23.778Z,18.60
2018-05-12T05:58:17.065Z,16.40
2018-05-12T05:59:16.991Z,16.30
2018-05-12T06:01:10.341Z,23.00
2018-05-12T06:02:10.256Z,21.50
2018-05-12T06:04:03.535Z,18.10
2018-05-12T06:05:03.469Z,19.80
2018-05-12T06:06:56.875Z,19.90
2018-05-12T06:07:56.695Z,19.20
2018-05-12T06:09:49.975Z,18.20
2018-05-12T06:10:49.894Z,20.80
2018-05-12T06:12:43.276Z,17.60
2018-05-12T06:13:43.108Z,19.90
2018-05-12T06:15:36.403Z,18.50
2018-05-12T06:16:36.319Z,20.10
2018-05-12T06:18:29.597Z,18.20
2018-05-12T06:19:29.533Z,18.80
2018-05-12T06:21:22.832Z,24.50
2018-05-12T06:22:22.749Z,17.60
2018-05-12T06:24:16.026Z,18.20
2018-05-12T06:25:15.960Z,18.80
2018-05-12T06:27:09.248Z,17.10
2018-05-12T06:28:09.169Z,17.70
2018-05-12T06:30:02.444Z,15.90
2018-05-12T06:31:02.383Z,19.00
2018-05-12T06:32:55.680Z,19.90
2018-05-12T06:33:55.603Z,18.80
2018-05-12T06:35:48.895Z,17.90
2018-05-12T06:36:48.814Z,16.90
2018-05-12T06:38:42.091Z,17.80
2018-05-12T06:39:42.031Z,19.80
2018-05-12T06:41:35.332Z,17.40
2018-05-12T06:42:35.251Z,17.20
2018-05-12T06:44:28.528Z,18.50
2018-05-12T06:45:28.468Z,18.20
2018-05-12T06:47:21.759Z,19.10
2018-05-12T06:48:21.678Z,17.50
2018-05-12T06:50:15.562Z,20.60
2018-05-12T06:51:14.898Z,17.40
2018-05-12T06:53:08.203Z,16.10
2018-05-12T06:54:08.126Z,16.80
2018-05-12T06:56:01.428Z,21.20
2018-05-12T06:57:01.349Z,16.50
2018-05-12T06:58:54.634Z,13.60
2018-05-12T06:59:54.576Z,15.50
2018-05-12T07:01:47.884Z,18.80
2018-05-12T07:02:47.805Z,16.50
2018-05-12T07:04:41.190Z,17.40
2018-05-12T07:05:41.034Z,15.20
2018-05-12T07:07:34.407Z,14.80
2018-05-12T07:08:34.273Z,12.60
2018-05-12T07:10:27.577Z,13.10
2018-05-12T07:11:27.501Z,15.50
2018-05-12T07:13:20.891Z,13.50
2018-05-12T07:14:20.733Z,13.50
2018-05-12T07:16:14.057Z,12.00
2018-05-12T07:17:13.983Z,13.70
2018-05-12T07:19:07.271Z,14.30
2018-05-12T07:20:07.293Z,14.10
2018-05-12T07:22:00.625Z,18.20
2018-05-12T07:23:00.450Z,17.00
2018-05-12T07:24:53.839Z,14.30
2018-05-12T07:25:53.684Z,12.90
2018-05-12T07:27:46.983Z,15.90
2018-05-12T07:28:46.908Z,16.40
2018-05-12T07:30:40.220Z,12.50
2018-05-12T07:31:40.144Z,15.20
2018-05-12T07:33:33.434Z,18.70
2018-05-12T07:34:33.379Z,16.50
2018-05-12T07:36:26.789Z,15.90
2018-05-12T07:37:26.616Z,17.80
2018-05-12T07:39:19.909Z,15.60
2018-05-12T07:40:19.850Z,14.20
2018-05-12T07:42:13.162Z,12.90
2018-05-12T07:43:13.089Z,14.00
2018-05-12T07:45:06.380Z,13.70
2018-05-12T07:46:06.326Z,15.50
2018-05-12T07:47:59.631Z,15.40
2018-05-12T07:48:59.553Z,14.80
2018-05-12T07:50:52.870Z,14.00
2018-05-12T07:51:52.886Z,13.50
2018-05-12T07:53:46.091Z,14.90
2018-05-12T07:54:46.036Z,14.20
2018-05-12T07:56:39.448Z,16.80
2018-05-12T07:57:39.275Z,13.70
2018-05-12T07:59:32.571Z,13.40
2018-05-12T08:00:32.519Z,14.70
2018-05-12T08:02:26.829Z,12.30
2018-05-12T08:03:26.797Z,13.70
2018-05-12T08:05:20.058Z,14.00
2018-05-12T08:06:19.997Z,15.50
2018-05-12T08:08:13.310Z,14.00
2018-05-12T08:09:13.238Z,15.00
2018-05-12T08:11:06.649Z,14.20
2018-05-12T08:12:06.470Z,15.70
2018-05-12T08:13:59.863Z,13.50
2018-05-12T08:14:59.711Z,15.90
2018-05-12T08:16:53.038Z,16.80
2018-05-12T08:17:52.964Z,15.20
2018-05-12T08:19:46.348Z,14.40
2018-05-12T08:20:46.298Z,12.00
2018-05-12T08:22:39.577Z,12.90
2018-05-12T08:23:39.505Z,13.60
2018-05-12T08:25:32.788Z,13.20
2018-05-12T08:26:32.738Z,13.00
2018-05-12T08:28:26.053Z,13.20
2018-05-12T08:29:25.966Z,13.80
2018-05-12T08:31:19.273Z,15.40
2018-05-12T08:32:19.204Z,14.10
2018-05-12T08:34:12.487Z,15.60
2018-05-12T08:35:12.432Z,13.70
2018-05-12T08:37:05.755Z,13.40
2018-05-12T08:38:05.665Z,12.60
2018-05-12T08:40:00.559Z,12.80
2018-05-12T08:40:59.898Z,16.00
2018-05-12T08:42:53.201Z,12.30
2018-05-12T08:43:53.128Z,13.30
2018-05-12T08:45:46.521Z,14.00
2018-05-12T08:46:46.360Z,11.30
2018-05-12T08:48:39.664Z,10.90
2018-05-12T08:49:39.591Z,13.50
2018-05-12T08:51:33.008Z,10.70
2018-05-12T08:52:32.823Z,8.70
2018-05-12T08:54:26.106Z,9.00
2018-05-12T08:55:26.134Z,8.10
2018-05-12T08:57:19.359Z,12.10
2018-05-12T08:58:19.285Z,11.70
2018-05-12T09:00:13.574Z,14.70
2018-05-12T09:01:13.537Z,10.30
2018-05-12T09:03:06.825Z,8.10
2018-05-12T09:04:06.750Z,7.00
2018-05-12T09:06:00.036Z,10.20
2018-05-12T09:06:59.981Z,7.10
2018-05-12T09:08:53.378Z,11.80
2018-05-12T09:09:53.215Z,9.60
2018-05-12T09:11:46.536Z,8.50
2018-05-12T09:12:46.491Z,10.40
2018-05-12T09:14:39.759Z,11.30
2018-05-12T09:15:39.699Z,10.20
2018-05-12T09:17:33.120Z,11.50
2018-05-12T09:18:32.947Z,9.40
2018-05-12T09:20:26.333Z,11.10
2018-05-12T09:21:26.179Z,9.20
2018-05-12T09:23:19.478Z,9.90
2018-05-12T09:24:19.406Z,11.70
2018-05-12T09:26:12.693Z,7.90
2018-05-12T09:27:12.639Z,8.90
2018-05-12T09:29:05.941Z,7.40
2018-05-12T09:30:05.871Z,6.30
2018-05-12T09:31:59.176Z,7.90
2018-05-12T09:32:59.112Z,7.40
2018-05-12T09:34:52.395Z,7.50
2018-05-12T09:35:52.342Z,7.50
2018-05-12T09:37:45.663Z,6.70
2018-05-12T09:38:45.578Z,8.30
2018-05-12T09:40:38.875Z,8.70
2018-05-12T09:41:38.825Z,9.10
2018-05-12T09:43:32.243Z,10.00
2018-05-12T09:44:32.069Z,7.20
2018-05-12T09:46:25.385Z,8.10
2018-05-12T09:47:25.314Z,10.30
2018-05-12T09:49:18.630Z,9.50
2018-05-12T09:50:18.600Z,8.70
2018-05-12T09:52:11.876Z,11.70
2018-05-12T09:53:11.805Z,9.30
2018-05-12T09:55:05.103Z,12.60
2018-05-12T09:56:05.050Z,11.20
2018-05-12T09:57:58.442Z,11.10
2018-05-12T09:58:58.319Z,9.90
2018-05-12T10:00:51.594Z,10.60
2018-05-12T10:01:51.540Z,9.90
2018-05-12T10:03:44.887Z,8.90
2018-05-12T10:04:44.817Z,8.50
2018-05-12T10:06:38.145Z,8.50
2018-05-12T10:07:38.072Z,8.80
2018-05-12T10:09:31.492Z,14.20
2018-05-12T10:10:31.348Z,11.10
2018-05-12T10:12:24.654Z,10.70
2018-05-12T10:13:24.584Z,13.60
2018-05-12T10:15:17.980Z,10.40
2018-05-12T10:16:17.826Z,10.90
2018-05-12T10:18:11.123Z,10.10
2018-05-12T10:19:11.057Z,11.70
2018-05-12T10:21:04.346Z,11.20
2018-05-12T10:22:04.291Z,11.60
2018-05-12T10:23:57.593Z,11.20
2018-05-12T10:24:57.527Z,13.40
2018-05-12T10:26:50.847Z,12.00
2018-05-12T10:27:50.760Z,12.40
2018-05-12T10:29:44.056Z,12.90
2018-05-12T10:30:44.005Z,12.80
2018-05-12T10:32:37.307Z,9.00
2018-05-12T10:33:37.243Z,9.70
2018-05-12T10:35:30.628Z,11.00
2018-05-12T10:36:30.469Z,15.80
2018-05-12T10:38:23.773Z,10.40
2018-05-12T10:39:23.704Z,7.60
2018-05-12T10:41:16.990Z,13.20
2018-05-12T10:42:16.939Z,10.50
2018-05-12T10:44:10.244Z,10.60
2018-05-12T10:45:10.173Z,10.90
2018-05-12T10:47:03.488Z,10.20
2018-05-12T10:48:03.411Z,8.40
2018-05-12T10:49:56.696Z,9.80
2018-05-12T10:50:56.653Z,10.30
2018-05-12T10:52:49.956Z,11.70
2018-05-12T10:53:49.884Z,9.40
2018-05-12T10:55:43.171Z,8.40
2018-05-12T10:56:43.118Z,8.20
2018-05-12T10:58:36.424Z,9.20
2018-05-12T10:59:36.400Z,11.50
2018-05-12T11:01:29.172Z,7.10
2018-05-12T11:02:29.105Z,7.90
2018-05-12T11:04:22.413Z,6.20
2018-05-12T11:05:22.340Z,8.50
2018-05-12T11:07:15.756Z,7.40
2018-05-12T11:08:15.581Z,8.40
2018-05-12T11:10:08.866Z,10.90
2018-05-12T11:11:08.814Z,8.30
2018-05-12T11:13:02.116Z,8.60
2018-05-12T11:14:02.046Z,11.80
2018-05-12T11:15:55.383Z,11.00
2018-05-12T11:16:55.280Z,9.80
2018-05-12T11:18:48.583Z,12.20
2018-05-12T11:19:48.511Z,10.80
2018-05-12T11:21:41.911Z,12.50
2018-05-12T11:22:41.743Z,7.50
2018-05-12T11:24:35.049Z,11.10
2018-05-12T11:25:34.977Z,10.60
2018-05-12T11:27:28.349Z,9.80
2018-05-12T11:28:28.277Z,11.80
2018-05-12T11:30:21.585Z,11.50
2018-05-12T11:31:21.519Z,10.90
2018-05-12T11:33:14.818Z,9.70
2018-05-12T11:34:14.743Z,8.10
2018-05-12T11:36:08.040Z,12.00
2018-05-12T11:37:07.982Z,8.70
2018-05-12T11:39:01.284Z,11.10
2018-05-12T11:40:01.213Z,10.40
2018-05-12T11:41:54.494Z,11.00
2018-05-12T11:42:54.440Z,10.90
2018-05-12T11:44:47.896Z,8.80
2018-05-12T11:45:47.678Z,9.50
2018-05-12T11:47:40.980Z,12.40
2018-05-12T11:48:40.907Z,11.30
2018-05-12T11:50:34.189Z,9.60
2018-05-12T11:51:34.136Z,12.80
2018-05-12T11:53:27.472Z,11.90
2018-05-12T11:54:27.394Z,10.80
2018-05-12T11:56:20.677Z,12.40
2018-05-12T11:57:20.627Z,13.80
2018-05-12T11:59:13.930Z,13.50
2018-05-12T12:00:13.865Z,11.50
2018-05-12T12:02:07.154Z,10.40
2018-05-12T12:03:07.101Z,15.20
2018-05-12T12:05:01.020Z,9.30
2018-05-12T12:06:00.339Z,9.90
2018-05-12T12:07:53.661Z,10.60
2018-05-12T12:08:53.590Z,10.50
2018-05-12T12:10:46.981Z,14.50
2018-05-12T12:11:46.816Z,12.50
2018-05-12T12:13:40.119Z,10.70
2018-05-12T12:14:40.046Z,10.30
2018-05-12T12:16:33.363Z,14.20
2018-05-12T12:17:33.273Z,12.00
2018-05-12T12:19:26.681Z,13.20
2018-05-12T12:20:26.500Z,17.50
2018-05-12T12:22:19.812Z,9.20
2018-05-12T12:23:19.748Z,13.10
2018-05-12T12:25:13.059Z,11.10
2018-05-12T12:26:12.994Z,9.30
2018-05-12T12:28:06.353Z,8.70
2018-05-12T12:29:06.276Z,9.90
2018-05-12T12:30:59.560Z,9.90
2018-05-12T12:31:59.506Z,9.50
2018-05-12T12:33:52.808Z,10.40
2018-05-12T12:34:52.734Z,11.10
2018-05-12T12:36:46.626Z,8.50
2018-05-12T12:37:45.995Z,8.80
2018-05-12T12:39:39.291Z,10.00
2018-05-12T12:40:39.226Z,9.30
2018-05-12T12:42:32.502Z,8.10
2018-05-12T12:43:32.448Z,7.10
2018-05-12T12:45:26.749Z,8.30
2018-05-12T12:46:26.676Z,8.30
2018-05-12T12:48:19.976Z,8.30
2018-05-12T12:49:19.900Z,9.10
2018-05-12T12:51:13.184Z,9.40
2018-05-12T12:52:13.129Z,10.80
2018-05-12T12:54:06.431Z,7.90
2018-05-12T12:55:06.359Z,8.40
2018-05-12T12:56:59.749Z,9.50
2018-05-12T12:57:59.587Z,9.40
2018-05-12T12:59:52.896Z,7.60
2018-05-12T13:00:52.830Z,8.70
2018-05-12T13:02:46.207Z,8.30
2018-05-12T13:03:46.059Z,7.60
2018-05-12T13:05:39.353Z,10.40
2018-05-12T13:06:39.278Z,7.20
2018-05-12T13:08:32.588Z,7.70
2018-05-12T13:09:32.508Z,7.10
2018-05-12T13:11:25.801Z,7.30
2018-05-12T13:12:25.736Z,6.90
2018-05-12T13:14:19.040Z,8.90
2018-05-12T13:15:18.964Z,9.20
2018-05-12T13:17:12.251Z,7.10
2018-05-12T13:18:12.196Z,10.40
2018-05-12T13:20:05.496Z,8.10
2018-05-12T13:21:05.423Z,10.50
2018-05-12T13:22:59.817Z,8.10
2018-05-12T13:23:59.653Z,6.90
2018-05-12T13:25:52.952Z,6.90
2018-05-12T13:26:52.877Z,9.30
2018-05-12T13:28:46.180Z,6.50
2018-05-12T13:29:46.108Z,8.30
2018-05-12T13:31:39.388Z,6.50
2018-05-12T13:32:39.338Z,7.30
2018-05-12T13:34:32.630Z,7.00
2018-05-12T13:35:32.566Z,9.50
2018-05-12T13:37:25.844Z,9.70
2018-05-12T13:38:25.802Z,10.50
2018-05-12T13:40:20.172Z,7.20
2018-05-12T13:41:20.076Z,7.60
2018-05-12T13:43:13.315Z,10.70
2018-05-12T13:44:13.262Z,9.20
2018-05-12T13:46:06.592Z,9.00
2018-05-12T13:47:06.516Z,7.40
2018-05-12T13:48:59.926Z,9.00
2018-05-12T13:49:59.743Z,7.90
2018-05-12T13:51:53.139Z,5.60
2018-05-12T13:52:52.970Z,7.90
2018-05-12T13:54:46.381Z,10.30
2018-05-12T13:55:46.300Z,10.40
2018-05-12T13:57:39.556Z,6.50
2018-05-12T13:58:39.503Z,6.80
2018-05-12T14:00:32.912Z,6.80
2018-05-12T14:01:32.728Z,7.50
2018-05-12T14:03:26.123Z,8.70
2018-05-12T14:04:25.961Z,7.50
2018-05-12T14:06:19.261Z,7.30
2018-05-12T14:07:19.262Z,8.30
2018-05-12T14:09:12.487Z,8.70
2018-05-12T14:10:12.426Z,11.20
2018-05-12T14:12:05.700Z,8.90
2018-05-12T14:13:05.651Z,6.20
2018-05-12T14:14:58.942Z,9.40
2018-05-12T14:15:58.868Z,10.60
2018-05-12T14:17:52.151Z,6.60
2018-05-12T14:18:52.170Z,8.40
2018-05-12T14:20:45.393Z,7.10
2018-05-12T14:21:45.328Z,9.30
2018-05-12T14:23:38.606Z,5.60
2018-05-12T14:24:38.546Z,6.20
2018-05-12T14:26:31.846Z,6.70
2018-05-12T14:27:31.772Z,5.10
2018-05-12T14:29:25.069Z,6.40
2018-05-12T14:30:24.996Z,9.40
2018-05-12T14:32:18.327Z,8.40
2018-05-12T14:33:18.310Z,6.90
2018-05-12T14:35:11.574Z,6.70
2018-05-12T14:36:11.499Z,5.90
2018-05-12T14:38:04.789Z,7.20
2018-05-12T14:39:04.726Z,6.70
2018-05-12T14:40:58.025Z,7.60
2018-05-12T14:41:57.954Z,7.40
2018-05-12T14:43:51.234Z,8.90
2018-05-12T14:44:51.178Z,7.10
2018-05-12T14:46:44.479Z,9.90
2018-05-12T14:47:44.406Z,6.20
2018-05-12T14:49:37.825Z,10.10
2018-05-12T14:50:37.633Z,10.20
2018-05-12T14:52:30.915Z,5.70
2018-05-12T14:53:30.863Z,6.60
2018-05-12T14:55:24.276Z,11.60
2018-05-12T14:56:24.088Z,11.00
2018-05-12T14:58:17.481Z,8.80
2018-05-12T14:59:17.316Z,7.70
2018-05-12T15:01:10.616Z,8.30
2018-05-12T15:02:10.554Z,6.90
2018-05-12T15:04:03.825Z,10.20
2018-05-12T15:05:03.772Z,4.90
2018-05-12T15:06:57.180Z,5.50
2018-05-12T15:07:57.000Z,5.80
2018-05-12T15:09:50.349Z,9.20
2018-05-12T15:10:50.273Z,8.10
2018-05-12T15:12:43.556Z,6.20
2018-05-12T15:13:43.505Z,5.60
2018-05-12T15:15:36.806Z,4.80
2018-05-12T15:16:36.728Z,6.40
2018-05-12T15:18:30.123Z,5.40
2018-05-12T15:19:29.958Z,5.30
2018-05-12T15:21:23.300Z,6.70
2018-05-12T15:22:23.187Z,7.20
2018-05-12T15:24:16.478Z,6.80
2018-05-12T15:25:16.424Z,8.60
2018-05-12T15:27:09.734Z,4.90
2018-05-12T15:28:09.655Z,6.70
2018-05-12T15:30:02.968Z,6.50
2018-05-12T15:31:02.917Z,6.20
2018-05-12T15:32:56.187Z,7.40
2018-05-12T15:33:56.132Z,6.40
2018-05-12T15:35:49.544Z,6.90
2018-05-12T15:36:49.371Z,7.10
2018-05-12T15:38:42.667Z,8.30
2018-05-12T15:39:42.624Z,7.40
2018-05-12T15:41:36.023Z,10.80
2018-05-12T15:42:35.850Z,9.10
2018-05-12T15:44:29.141Z,10.20
2018-05-12T15:45:29.098Z,9.50
2018-05-12T15:47:22.498Z,9.70
2018-05-12T15:48:22.315Z,7.90
2018-05-12T15:50:15.628Z,7.50
2018-05-12T15:51:15.554Z,6.10
2018-05-12T15:53:09.847Z,6.30
2018-05-12T15:54:09.790Z,5.40
2018-05-12T15:56:03.103Z,8.60
2018-05-12T15:57:03.028Z,6.60
2018-05-12T15:58:56.419Z,6.00
2018-05-12T15:59:56.276Z,6.90
2018-05-12T16:01:49.683Z,5.30
2018-05-12T16:02:49.509Z,7.10
2018-05-12T16:04:43.804Z,7.10
2018-05-12T16:05:43.747Z,6.20
2018-05-12T16:07:37.047Z,6.10
2018-05-12T16:08:36.971Z,5.90
2018-05-12T16:10:30.350Z,7.00
2018-05-12T16:11:30.277Z,7.80
2018-05-12T16:13:23.567Z,6.60
2018-05-12T16:14:23.521Z,7.00
2018-05-12T16:16:16.820Z,8.30
2018-05-12T16:17:16.749Z,7.70
2018-05-12T16:19:10.040Z,7.90
2018-05-12T16:20:09.983Z,6.80
2018-05-12T16:22:03.418Z,10.10
2018-05-12T16:23:03.221Z,9.20
2018-05-12T16:24:56.514Z,8.30
2018-05-12T16:25:56.457Z,6.80
2018-05-12T16:27:49.770Z,6.70
2018-05-12T16:28:49.698Z,6.60
2018-05-12T16:30:43.008Z,6.40
2018-05-12T16:31:42.935Z,7.80
2018-05-12T16:33:36.226Z,5.40
2018-05-12T16:34:36.175Z,6.10
2018-05-12T16:36:29.485Z,9.50
2018-05-12T16:37:29.417Z,6.00
2018-05-12T16:39:22.702Z,7.90
2018-05-12T16:40:22.648Z,9.10
2018-05-12T16:42:15.958Z,7.20
2018-05-12T16:43:15.886Z,5.90
2018-05-12T16:45:10.278Z,8.10
2018-05-12T16:46:10.125Z,7.60
2018-05-12T16:48:04.041Z,8.70
2018-05-12T16:49:03.361Z,7.50
2018-05-12T16:50:56.765Z,6.70
2018-05-12T16:51:56.596Z,6.80
2018-05-12T16:53:49.887Z,6.90
2018-05-12T16:54:49.833Z,7.60
2018-05-12T16:56:43.144Z,9.90
2018-05-12T16:57:43.072Z,9.70
2018-05-12T16:59:36.357Z,10.20
2018-05-12T17:00:36.304Z,9.00
2018-05-12T17:02:29.616Z,11.70
2018-05-12T17:03:29.542Z,9.50
2018-05-12T17:05:22.831Z,11.10
2018-05-12T17:06:22.789Z,14.70
2018-05-12T17:08:16.083Z,10.00
2018-05-12T17:09:16.009Z,9.10
2018-05-12T17:11:09.330Z,13.20
2018-05-12T17:12:09.244Z,10.80
2018-05-12T17:14:02.535Z,10.80
2018-05-12T17:15:02.478Z,8.80
2018-05-12T17:16:55.788Z,10.70
2018-05-12T17:17:55.716Z,8.30
2018-05-12T17:19:49.007Z,9.10
2018-05-12T17:20:48.947Z,8.70
2018-05-12T17:22:42.356Z,13.60
2018-05-12T17:23:42.273Z,9.30
2018-05-12T17:25:35.565Z,10.90
2018-05-12T17:26:35.503Z,8.70
2018-05-12T17:28:28.819Z,11.50
2018-05-12T17:29:28.743Z,10.30
2018-05-12T17:31:22.054Z,8.50
2018-05-12T17:32:22.012Z,8.10
2018-05-12T17:34:15.269Z,10.30
2018-05-12T17:35:15.213Z,9.40
2018-05-12T17:37:08.521Z,10.60
2018-05-12T17:38:08.443Z,8.80
2018-05-12T17:40:01.733Z,10.20
2018-05-12T17:41:01.677Z,11.10
2018-05-12T17:42:54.987Z,9.60
2018-05-12T17:43:54.912Z,11.40
2018-05-12T17:45:48.304Z,12.10
2018-05-12T17:46:48.145Z,12.60
2018-05-12T17:48:41.454Z,9.50
2018-05-12T17:49:41.382Z,13.30
2018-05-12T17:51:34.694Z,11.40
2018-05-12T17:52:34.616Z,11.80
2018-05-12T17:54:28.005Z,12.10
2018-05-12T17:55:27.855Z,10.80
2018-05-12T17:57:21.176Z,13.50
2018-05-12T17:58:21.102Z,11.90
2018-05-12T18:00:14.392Z,9.50
2018-05-12T18:01:14.334Z,9.80
2018-05-12T18:03:07.773Z,13.40
2018-05-12T18:04:07.572Z,13.80
2018-05-12T18:06:00.863Z,13.70
2018-05-12T18:07:00.806Z,13.70
2018-05-12T18:08:54.119Z,15.10
2018-05-12T18:09:54.045Z,12.70
2018-05-12T18:11:47.349Z,14.60
2018-05-12T18:12:47.279Z,12.60
2018-05-12T18:14:40.564Z,13.90
2018-05-12T18:15:40.508Z,13.60
2018-05-12T18:17:33.917Z,14.80
2018-05-12T18:18:33.735Z,14.60
2018-05-12T18:20:27.024Z,13.60
2018-05-12T18:21:26.966Z,15.70
2018-05-12T18:23:20.348Z,14.80
2018-05-12T18:24:20.274Z,16.90
2018-05-12T18:26:13.562Z,26.60
2018-05-12T18:27:13.519Z,44.20
2018-05-12T18:29:06.813Z,17.60
2018-05-12T18:30:06.737Z,14.80
2018-05-12T18:32:00.046Z,17.20
2018-05-12T18:32:59.972Z,15.60
2018-05-12T18:34:53.263Z,16.50
2018-05-12T18:35:53.200Z,15.40
2018-05-12T18:37:46.500Z,18.40
2018-05-12T18:38:46.423Z,16.80
2018-05-12T18:40:39.711Z,16.80
2018-05-12T18:41:39.656Z,15.80
2018-05-12T18:43:32.981Z,15.20
2018-05-12T18:44:32.906Z,13.80
2018-05-12T18:46:26.197Z,17.90